Canby, Minnesota
Current Conditions -  °F | °C
As of 6:53 PM on Friday 24 Oct 2014 (Local Time) from KCNB Reporting Station
Clear Clear  
Wind Chill: 64°   Ceiling: Unl
Heat Index: 64°   Visibility: 10mi
Dew Point: 40°   Wind: 10mph
Humidity: 41%   Direction: 260°W
Pressure: 29.9"   Gusts: NA
Location:  44.71°N, 96.28°W
Report Text: KCNB 242353Z AUTO 26009KT 10SM CLR 18/05 A2990 RMK AO2 T01800047 10251 20180
Loading
Personal Weather Stations






























Interactive Weather Map
Tropical Storm Tracking
New forecast layout! Learn more

10-Day Weather Forecast

Advertisements
Track Severe Weather on mobile